sensor_id;sensor_type;location;lat;lon;timestamp;P1;durP1;ratioP1;P2;durP2;ratioP2
54539;SDS011;40438;52.992;18.604;2022-09-30T00:01:21;38.85;;;17.00;;
54539;SDS011;40438;52.992;18.604;2022-09-30T00:03:47;37.03;;;16.08;;
54539;SDS011;40438;52.992;18.604;2022-09-30T00:06:13;41.55;;;16.60;;
54539;SDS011;40438;52.992;18.604;2022-09-30T00:08:38;39.88;;;16.13;;
54539;SDS011;40438;52.992;18.604;2022-09-30T00:11:05;36.35;;;15.30;;
54539;SDS011;40438;52.992;18.604;2022-09-30T00:13:33;35.13;;;14.18;;
54539;SDS011;40438;52.992;18.604;2022-09-30T00:16:02;35.60;;;16.02;;
54539;SDS011;40438;52.992;18.604;2022-09-30T00:18:29;35.75;;;16.38;;
54539;SDS011;40438;52.992;18.604;2022-09-30T00:20:55;34.60;;;15.73;;
54539;SDS011;40438;52.992;18.604;2022-09-30T00:23:21;41.13;;;16.98;;
54539;SDS011;40438;52.992;18.604;2022-09-30T00:25:48;39.40;;;18.40;;
54539;SDS011;40438;52.992;18.604;2022-09-30T00:28:14;39.45;;;16.90;;
54539;SDS011;40438;52.992;18.604;2022-09-30T00:30:39;43.85;;;16.67;;
54539;SDS011;40438;52.992;18.604;2022-09-30T00:33:07;39.00;;;18.40;;
54539;SDS011;40438;52.992;18.604;2022-09-30T00:35:32;39.83;;;18.50;;
54539;SDS011;40438;52.992;18.604;2022-09-30T00:37:58;38.35;;;17.58;;
54539;SDS011;40438;52.992;18.604;2022-09-30T00:40:24;38.95;;;17.73;;
54539;SDS011;40438;52.992;18.604;2022-09-30T00:42:51;35.92;;;15.82;;
54539;SDS011;40438;52.992;18.604;2022-09-30T00:45:17;38.85;;;16.08;;
54539;SDS011;40438;52.992;18.604;2022-09-30T00:47:48;36.28;;;16.98;;
54539;SDS011;40438;52.992;18.604;2022-09-30T00:50:19;40.25;;;17.05;;
54539;SDS011;40438;52.992;18.604;2022-09-30T00:52:51;41.97;;;16.60;;
54539;SDS011;40438;52.992;18.604;2022-09-30T00:55:23;33.83;;;15.40;;
54539;SDS011;40438;52.992;18.604;2022-09-30T00:57:54;31.15;;;16.05;;
54539;SDS011;40438;52.992;18.604;2022-09-30T01:00:21;35.80;;;15.93;;
54539;SDS011;40438;52.992;18.604;2022-09-30T01:02:47;47.25;;;17.23;;
54539;SDS011;40438;52.992;18.604;2022-09-30T01:05:13;36.00;;;15.93;;
54539;SDS011;40438;52.992;18.604;2022-09-30T01:07:41;40.05;;;15.35;;
54539;SDS011;40438;52.992;18.604;2022-09-30T01:10:07;39.55;;;16.42;;
54539;SDS011;40438;52.992;18.604;2022-09-30T01:12:33;33.42;;;16.13;;
54539;SDS011;40438;52.992;18.604;2022-09-30T01:14:58;32.45;;;15.20;;
54539;SDS011;40438;52.992;18.604;2022-09-30T01:17:30;34.35;;;13.98;;
54539;SDS011;40438;52.992;18.604;2022-09-30T01:20:07;33.17;;;15.20;;
54539;SDS011;40438;52.992;18.604;2022-09-30T01:22:53;35.22;;;14.55;;
54539;SDS011;40438;52.992;18.604;2022-09-30T01:28:44;39.10;;;15.98;;
54539;SDS011;40438;52.992;18.604;2022-09-30T01:31:36;31.92;;;15.27;;
54539;SDS011;40438;52.992;18.604;2022-09-30T01:34:13;31.88;;;13.55;;
54539;SDS011;40438;52.992;18.604;2022-09-30T01:36:49;33.47;;;15.90;;
54539;SDS011;40438;52.992;18.604;2022-09-30T01:39:29;29.83;;;14.52;;
54539;SDS011;40438;52.992;18.604;2022-09-30T01:42:05;31.55;;;13.57;;
54539;SDS011;40438;52.992;18.604;2022-09-30T01:44:38;38.92;;;16.30;;
54539;SDS011;40438;52.992;18.604;2022-09-30T01:47:15;34.28;;;15.40;;
54539;SDS011;40438;52.992;18.604;2022-09-30T01:49:48;39.50;;;15.88;;
54539;SDS011;40438;52.992;18.604;2022-09-30T01:52:19;31.90;;;14.80;;
54539;SDS011;40438;52.992;18.604;2022-09-30T01:54:49;33.13;;;14.60;;
54539;SDS011;40438;52.992;18.604;2022-09-30T01:57:24;34.55;;;15.52;;
54539;SDS011;40438;52.992;18.604;2022-09-30T01:59:56;40.00;;;15.07;;
54539;SDS011;40438;52.992;18.604;2022-09-30T02:02:27;34.30;;;14.90;;
54539;SDS011;40438;52.992;18.604;2022-09-30T02:04:56;36.50;;;15.05;;
54539;SDS011;40438;52.992;18.604;2022-09-30T02:07:27;31.00;;;14.88;;
54539;SDS011;40438;52.992;18.604;2022-09-30T02:09:58;36.67;;;15.23;;
54539;SDS011;40438;52.992;18.604;2022-09-30T02:12:27;34.78;;;15.05;;
54539;SDS011;40438;52.992;18.604;2022-09-30T02:14:57;33.97;;;14.30;;
54539;SDS011;40438;52.992;18.604;2022-09-30T02:17:29;33.40;;;15.07;;
54539;SDS011;40438;52.992;18.604;2022-09-30T02:19:58;32.47;;;14.25;;
54539;SDS011;40438;52.992;18.604;2022-09-30T02:22:28;31.98;;;14.10;;
54539;SDS011;40438;52.992;18.604;2022-09-30T02:24:59;35.05;;;16.20;;
54539;SDS011;40438;52.992;18.604;2022-09-30T02:29:56;41.85;;;16.15;;
54539;SDS011;40438;52.992;18.604;2022-09-30T02:32:25;37.28;;;15.90;;
54539;SDS011;40438;52.992;18.604;2022-09-30T02:34:56;31.75;;;14.02;;
54539;SDS011;40438;52.992;18.604;2022-09-30T02:37:26;32.47;;;14.88;;
54539;SDS011;40438;52.992;18.604;2022-09-30T02:39:57;28.58;;;13.73;;
54539;SDS011;40438;52.992;18.604;2022-09-30T02:42:30;29.90;;;13.88;;
54539;SDS011;40438;52.992;18.604;2022-09-30T02:45:01;26.13;;;12.75;;
54539;SDS011;40438;52.992;18.604;2022-09-30T02:47:29;27.73;;;14.57;;
54539;SDS011;40438;52.992;18.604;2022-09-30T02:50:07;41.63;;;17.80;;
54539;SDS011;40438;52.992;18.604;2022-09-30T02:52:43;39.45;;;17.25;;
54539;SDS011;40438;52.992;18.604;2022-09-30T02:55:22;48.20;;;18.90;;
54539;SDS011;40438;52.992;18.604;2022-09-30T02:57:56;46.53;;;19.90;;
54539;SDS011;40438;52.992;18.604;2022-09-30T03:00:26;37.33;;;17.48;;
54539;SDS011;40438;52.992;18.604;2022-09-30T03:02:53;43.97;;;17.73;;
54539;SDS011;40438;52.992;18.604;2022-09-30T03:05:23;36.05;;;16.92;;
54539;SDS011;40438;52.992;18.604;2022-09-30T03:07:49;33.00;;;15.48;;
54539;SDS011;40438;52.992;18.604;2022-09-30T03:10:15;35.30;;;15.05;;
54539;SDS011;40438;52.992;18.604;2022-09-30T03:12:45;34.25;;;15.13;;
54539;SDS011;40438;52.992;18.604;2022-09-30T03:15:35;25.83;;;13.13;;
54539;SDS011;40438;52.992;18.604;2022-09-30T03:18:26;25.85;;;12.52;;
54539;SDS011;40438;52.992;18.604;2022-09-30T03:21:05;28.15;;;12.70;;
54539;SDS011;40438;52.992;18.604;2022-09-30T03:26:29;26.27;;;11.80;;
54539;SDS011;40438;52.992;18.604;2022-09-30T03:29:07;25.75;;;11.35;;
54539;SDS011;40438;52.992;18.604;2022-09-30T03:31:40;30.05;;;13.40;;
54539;SDS011;40438;52.992;18.604;2022-09-30T03:34:17;27.85;;;11.90;;
54539;SDS011;40438;52.992;18.604;2022-09-30T03:36:49;29.15;;;11.73;;
54539;SDS011;40438;52.992;18.604;2022-09-30T03:39:23;24.77;;;11.95;;
54539;SDS011;40438;52.992;18.604;2022-09-30T03:41:51;31.38;;;11.70;;
54539;SDS011;40438;52.992;18.604;2022-09-30T03:44:22;27.00;;;11.20;;
54539;SDS011;40438;52.992;18.604;2022-09-30T03:46:55;26.92;;;11.73;;
54539;SDS011;40438;52.992;18.604;2022-09-30T03:49:25;27.88;;;12.68;;
54539;SDS011;40438;52.992;18.604;2022-09-30T03:51:56;28.38;;;11.63;;
54539;SDS011;40438;52.992;18.604;2022-09-30T03:54:24;28.23;;;12.38;;
54539;SDS011;40438;52.992;18.604;2022-09-30T03:56:50;30.13;;;11.30;;
54539;SDS011;40438;52.992;18.604;2022-09-30T03:59:18;29.55;;;14.05;;
54539;SDS011;40438;52.992;18.604;2022-09-30T04:01:47;23.65;;;10.73;;
54539;SDS011;40438;52.992;18.604;2022-09-30T04:04:13;26.40;;;13.00;;
54539;SDS011;40438;52.992;18.604;2022-09-30T04:06:38;29.17;;;12.52;;
54539;SDS011;40438;52.992;18.604;2022-09-30T04:09:05;31.05;;;13.20;;
54539;SDS011;40438;52.992;18.604;2022-09-30T04:11:31;26.90;;;12.50;;
54539;SDS011;40438;52.992;18.604;2022-09-30T04:13:57;25.23;;;12.55;;
54539;SDS011;40438;52.992;18.604;2022-09-30T04:16:23;23.02;;;11.90;;
54539;SDS011;40438;52.992;18.604;2022-09-30T04:18:49;26.10;;;11.98;;
54539;SDS011;40438;52.992;18.604;2022-09-30T04:21:15;24.75;;;10.85;;
54539;SDS011;40438;52.992;18.604;2022-09-30T04:23:41;35.53;;;14.55;;
54539;SDS011;40438;52.992;18.604;2022-09-30T04:26:10;31.85;;;13.57;;
54539;SDS011;40438;52.992;18.604;2022-09-30T04:28:37;28.77;;;13.45;;
54539;SDS011;40438;52.992;18.604;2022-09-30T04:31:03;33.63;;;14.20;;
54539;SDS011;40438;52.992;18.604;2022-09-30T04:33:30;29.15;;;12.18;;
54539;SDS011;40438;52.992;18.604;2022-09-30T04:35:56;32.72;;;13.30;;
54539;SDS011;40438;52.992;18.604;2022-09-30T04:38:23;43.47;;;14.85;;
54539;SDS011;40438;52.992;18.604;2022-09-30T04:40:49;38.50;;;15.38;;
54539;SDS011;40438;52.992;18.604;2022-09-30T04:43:17;76.00;;;14.95;;
54539;SDS011;40438;52.992;18.604;2022-09-30T04:45:43;55.80;;;14.40;;
54539;SDS011;40438;52.992;18.604;2022-09-30T04:48:09;40.85;;;13.82;;
54539;SDS011;40438;52.992;18.604;2022-09-30T04:50:35;36.17;;;14.27;;
54539;SDS011;40438;52.992;18.604;2022-09-30T04:53:01;44.25;;;15.80;;
54539;SDS011;40438;52.992;18.604;2022-09-30T04:55:26;54.45;;;16.70;;
54539;SDS011;40438;52.992;18.604;2022-09-30T04:57:52;44.35;;;16.00;;
54539;SDS011;40438;52.992;18.604;2022-09-30T05:00:19;52.63;;;16.08;;
54539;SDS011;40438;52.992;18.604;2022-09-30T05:02:45;41.05;;;13.75;;
54539;SDS011;40438;52.992;18.604;2022-09-30T05:05:11;36.90;;;14.00;;
54539;SDS011;40438;52.992;18.604;2022-09-30T05:07:37;37.17;;;12.48;;
54539;SDS011;40438;52.992;18.604;2022-09-30T05:10:03;48.15;;;14.15;;
54539;SDS011;40438;52.992;18.604;2022-09-30T05:12:29;33.75;;;12.85;;
54539;SDS011;40438;52.992;18.604;2022-09-30T05:14:55;29.42;;;11.73;;
54539;SDS011;40438;52.992;18.604;2022-09-30T05:17:22;28.58;;;12.23;;
54539;SDS011;40438;52.992;18.604;2022-09-30T05:19:48;36.72;;;12.10;;
54539;SDS011;40438;52.992;18.604;2022-09-30T05:22:14;39.13;;;12.77;;
54539;SDS011;40438;52.992;18.604;2022-09-30T05:24:40;23.42;;;11.15;;
54539;SDS011;40438;52.992;18.604;2022-09-30T05:27:06;33.78;;;12.10;;
54539;SDS011;40438;52.992;18.604;2022-09-30T05:29:31;27.73;;;11.52;;
54539;SDS011;40438;52.992;18.604;2022-09-30T05:31:57;25.05;;;11.43;;
54539;SDS011;40438;52.992;18.604;2022-09-30T05:34:24;22.85;;;11.15;;
54539;SDS011;40438;52.992;18.604;2022-09-30T05:36:50;24.02;;;11.52;;
54539;SDS011;40438;52.992;18.604;2022-09-30T05:39:16;30.08;;;13.60;;
54539;SDS011;40438;52.992;18.604;2022-09-30T05:41:42;25.77;;;10.18;;
54539;SDS011;40438;52.992;18.604;2022-09-30T05:44:07;22.88;;;12.00;;
54539;SDS011;40438;52.992;18.604;2022-09-30T05:46:33;29.80;;;12.63;;
54539;SDS011;40438;52.992;18.604;2022-09-30T05:48:59;32.47;;;13.15;;
54539;SDS011;40438;52.992;18.604;2022-09-30T05:51:26;29.67;;;13.60;;
54539;SDS011;40438;52.992;18.604;2022-09-30T05:53:52;26.98;;;13.27;;
54539;SDS011;40438;52.992;18.604;2022-09-30T05:56:18;47.47;;;14.18;;
54539;SDS011;40438;52.992;18.604;2022-09-30T05:58:43;33.67;;;12.75;;
54539;SDS011;40438;52.992;18.604;2022-09-30T06:01:09;31.45;;;12.88;;
54539;SDS011;40438;52.992;18.604;2022-09-30T06:03:37;30.00;;;13.93;;
54539;SDS011;40438;52.992;18.604;2022-09-30T06:06:03;35.40;;;15.10;;
54539;SDS011;40438;52.992;18.604;2022-09-30T06:08:30;40.00;;;16.30;;
54539;SDS011;40438;52.992;18.604;2022-09-30T06:10:56;33.65;;;15.07;;
54539;SDS011;40438;52.992;18.604;2022-09-30T06:13:22;33.38;;;15.18;;
54539;SDS011;40438;52.992;18.604;2022-09-30T06:15:53;34.40;;;14.02;;
54539;SDS011;40438;52.992;18.604;2022-09-30T06:18:20;35.45;;;14.38;;
54539;SDS011;40438;52.992;18.604;2022-09-30T06:20:45;32.53;;;14.35;;
54539;SDS011;40438;52.992;18.604;2022-09-30T06:23:11;31.02;;;13.77;;
54539;SDS011;40438;52.992;18.604;2022-09-30T06:25:38;33.25;;;13.07;;
54539;SDS011;40438;52.992;18.604;2022-09-30T06:28:04;28.05;;;13.63;;
54539;SDS011;40438;52.992;18.604;2022-09-30T06:30:30;27.98;;;12.60;;
54539;SDS011;40438;52.992;18.604;2022-09-30T06:32:55;30.17;;;14.68;;
54539;SDS011;40438;52.992;18.604;2022-09-30T06:35:21;31.15;;;14.98;;
54539;SDS011;40438;52.992;18.604;2022-09-30T06:37:49;40.95;;;15.30;;
54539;SDS011;40438;52.992;18.604;2022-09-30T06:40:15;31.88;;;15.70;;
54539;SDS011;40438;52.992;18.604;2022-09-30T06:42:42;37.33;;;16.73;;
54539;SDS011;40438;52.992;18.604;2022-09-30T06:45:08;36.38;;;15.07;;
54539;SDS011;40438;52.992;18.604;2022-09-30T06:47:34;30.48;;;12.88;;
54539;SDS011;40438;52.992;18.604;2022-09-30T06:50:00;29.67;;;14.18;;
54539;SDS011;40438;52.992;18.604;2022-09-30T06:52:25;28.60;;;13.23;;
54539;SDS011;40438;52.992;18.604;2022-09-30T06:54:51;30.35;;;13.90;;
54539;SDS011;40438;52.992;18.604;2022-09-30T06:57:17;32.25;;;14.13;;
54539;SDS011;40438;52.992;18.604;2022-09-30T06:59:44;27.80;;;12.35;;
54539;SDS011;40438;52.992;18.604;2022-09-30T07:02:10;29.38;;;13.05;;
54539;SDS011;40438;52.992;18.604;2022-09-30T07:04:35;25.95;;;11.43;;
54539;SDS011;40438;52.992;18.604;2022-09-30T07:07:01;28.13;;;12.98;;
54539;SDS011;40438;52.992;18.604;2022-09-30T07:09:27;28.27;;;13.23;;
54539;SDS011;40438;52.992;18.604;2022-09-30T07:11:53;32.47;;;14.25;;
54539;SDS011;40438;52.992;18.604;2022-09-30T07:14:18;34.50;;;15.38;;
54539;SDS011;40438;52.992;18.604;2022-09-30T07:16:45;36.17;;;16.17;;
54539;SDS011;40438;52.992;18.604;2022-09-30T07:19:11;36.65;;;15.70;;
54539;SDS011;40438;52.992;18.604;2022-09-30T07:21:37;39.17;;;16.55;;
54539;SDS011;40438;52.992;18.604;2022-09-30T07:24:03;44.72;;;17.08;;
54539;SDS011;40438;52.992;18.604;2022-09-30T07:26:28;31.58;;;14.82;;
54539;SDS011;40438;52.992;18.604;2022-09-30T07:28:54;43.17;;;15.80;;
54539;SDS011;40438;52.992;18.604;2022-09-30T07:31:22;32.92;;;14.68;;
54539;SDS011;40438;52.992;18.604;2022-09-30T07:33:50;32.25;;;15.13;;
54539;SDS011;40438;52.992;18.604;2022-09-30T07:36:16;32.78;;;15.25;;
54539;SDS011;40438;52.992;18.604;2022-09-30T07:38:44;36.00;;;16.20;;
54539;SDS011;40438;52.992;18.604;2022-09-30T07:41:11;35.85;;;15.48;;
54539;SDS011;40438;52.992;18.604;2022-09-30T07:43:39;36.67;;;16.23;;
54539;SDS011;40438;52.992;18.604;2022-09-30T07:46:08;39.88;;;17.13;;
54539;SDS011;40438;52.992;18.604;2022-09-30T07:48:35;37.72;;;16.45;;
54539;SDS011;40438;52.992;18.604;2022-09-30T07:51:03;37.35;;;15.77;;
54539;SDS011;40438;52.992;18.604;2022-09-30T07:53:29;36.90;;;16.70;;
54539;SDS011;40438;52.992;18.604;2022-09-30T07:55:55;42.95;;;17.38;;
54539;SDS011;40438;52.992;18.604;2022-09-30T07:58:21;45.72;;;18.88;;
54539;SDS011;40438;52.992;18.604;2022-09-30T08:00:46;33.03;;;16.17;;
54539;SDS011;40438;52.992;18.604;2022-09-30T08:03:12;33.85;;;17.02;;
54539;SDS011;40438;52.992;18.604;2022-09-30T08:05:38;41.55;;;17.50;;
54539;SDS011;40438;52.992;18.604;2022-09-30T08:08:06;38.58;;;16.70;;
54539;SDS011;40438;52.992;18.604;2022-09-30T08:10:32;50.35;;;21.55;;
54539;SDS011;40438;52.992;18.604;2022-09-30T08:12:58;42.55;;;20.55;;
54539;SDS011;40438;52.992;18.604;2022-09-30T08:15:24;42.03;;;19.98;;
54539;SDS011;40438;52.992;18.604;2022-09-30T08:17:50;40.22;;;20.00;;
54539;SDS011;40438;52.992;18.604;2022-09-30T08:20:15;39.63;;;18.88;;
54539;SDS011;40438;52.992;18.604;2022-09-30T08:22:41;39.35;;;18.48;;
54539;SDS011;40438;52.992;18.604;2022-09-30T08:25:08;36.83;;;18.27;;
54539;SDS011;40438;52.992;18.604;2022-09-30T08:27:34;40.53;;;17.98;;
54539;SDS011;40438;52.992;18.604;2022-09-30T08:30:00;37.80;;;17.65;;
54539;SDS011;40438;52.992;18.604;2022-09-30T08:32:28;71.65;;;29.67;;
54539;SDS011;40438;52.992;18.604;2022-09-30T08:34:54;35.38;;;16.80;;
54539;SDS011;40438;52.992;18.604;2022-09-30T08:37:20;52.15;;;22.00;;
54539;SDS011;40438;52.992;18.604;2022-09-30T08:39:45;50.30;;;21.30;;
54539;SDS011;40438;52.992;18.604;2022-09-30T08:42:16;63.85;;;30.20;;
54539;SDS011;40438;52.992;18.604;2022-09-30T08:44:50;48.13;;;22.45;;
54539;SDS011;40438;52.992;18.604;2022-09-30T08:47:22;31.33;;;15.05;;
54539;SDS011;40438;52.992;18.604;2022-09-30T08:50:01;31.38;;;15.18;;
54539;SDS011;40438;52.992;18.604;2022-09-30T08:52:34;33.60;;;15.55;;
54539;SDS011;40438;52.992;18.604;2022-09-30T08:55:02;33.85;;;14.82;;
54539;SDS011;40438;52.992;18.604;2022-09-30T08:57:34;29.17;;;14.77;;
54539;SDS011;40438;52.992;18.604;2022-09-30T09:00:03;31.83;;;14.60;;
54539;SDS011;40438;52.992;18.604;2022-09-30T09:02:31;33.33;;;15.10;;
54539;SDS011;40438;52.992;18.604;2022-09-30T09:05:02;31.45;;;16.45;;
54539;SDS011;40438;52.992;18.604;2022-09-30T09:07:33;31.77;;;16.15;;
54539;SDS011;40438;52.992;18.604;2022-09-30T09:10:11;32.85;;;15.65;;
54539;SDS011;40438;52.992;18.604;2022-09-30T09:12:51;25.48;;;13.10;;
54539;SDS011;40438;52.992;18.604;2022-09-30T09:15:26;26.00;;;12.90;;
54539;SDS011;40438;52.992;18.604;2022-09-30T09:18:22;35.22;;;16.80;;
54539;SDS011;40438;52.992;18.604;2022-09-30T09:20:58;37.13;;;14.88;;
54539;SDS011;40438;52.992;18.604;2022-09-30T09:23:28;53.50;;;21.10;;
54539;SDS011;40438;52.992;18.604;2022-09-30T09:25:57;33.97;;;16.08;;
54539;SDS011;40438;52.992;18.604;2022-09-30T09:28:26;28.38;;;15.63;;
54539;SDS011;40438;52.992;18.604;2022-09-30T09:30:57;24.02;;;13.13;;
54539;SDS011;40438;52.992;18.604;2022-09-30T09:33:25;24.48;;;13.07;;
54539;SDS011;40438;52.992;18.604;2022-09-30T09:35:56;24.08;;;12.45;;
54539;SDS011;40438;52.992;18.604;2022-09-30T09:38:34;22.85;;;12.07;;
54539;SDS011;40438;52.992;18.604;2022-09-30T09:41:13;228.25;;;65.53;;
54539;SDS011;40438;52.992;18.604;2022-09-30T09:43:50;86.95;;;29.40;;
54539;SDS011;40438;52.992;18.604;2022-09-30T09:46:23;34.53;;;14.45;;
54539;SDS011;40438;52.992;18.604;2022-09-30T09:49:00;22.70;;;12.52;;
54539;SDS011;40438;52.992;18.604;2022-09-30T09:51:52;21.20;;;9.65;;
54539;SDS011;40438;52.992;18.604;2022-09-30T09:54:29;21.65;;;10.75;;
54539;SDS011;40438;52.992;18.604;2022-09-30T09:57:03;20.02;;;10.82;;
54539;SDS011;40438;52.992;18.604;2022-09-30T09:59:31;15.27;;;8.60;;
54539;SDS011;40438;52.992;18.604;2022-09-30T10:01:58;15.80;;;8.70;;
54539;SDS011;40438;52.992;18.604;2022-09-30T10:04:24;16.95;;;9.55;;
54539;SDS011;40438;52.992;18.604;2022-09-30T10:06:52;18.88;;;9.30;;
54539;SDS011;40438;52.992;18.604;2022-09-30T10:09:26;19.25;;;9.52;;
54539;SDS011;40438;52.992;18.604;2022-09-30T10:12:16;18.73;;;9.13;;
54539;SDS011;40438;52.992;18.604;2022-09-30T10:14:52;13.57;;;7.00;;
54539;SDS011;40438;52.992;18.604;2022-09-30T10:17:25;10.27;;;6.25;;
54539;SDS011;40438;52.992;18.604;2022-09-30T10:19:54;10.82;;;6.20;;
54539;SDS011;40438;52.992;18.604;2022-09-30T10:22:24;16.25;;;8.48;;
54539;SDS011;40438;52.992;18.604;2022-09-30T10:24:57;14.93;;;6.68;;
54539;SDS011;40438;52.992;18.604;2022-09-30T10:27:34;9.52;;;5.40;;
54539;SDS011;40438;52.992;18.604;2022-09-30T10:30:01;9.95;;;6.40;;
54539;SDS011;40438;52.992;18.604;2022-09-30T10:32:27;10.40;;;5.57;;
54539;SDS011;40438;52.992;18.604;2022-09-30T10:34:54;12.25;;;7.70;;
54539;SDS011;40438;52.992;18.604;2022-09-30T10:37:26;14.55;;;9.25;;
54539;SDS011;40438;52.992;18.604;2022-09-30T10:39:54;11.95;;;6.97;;
54539;SDS011;40438;52.992;18.604;2022-09-30T10:42:24;10.75;;;7.13;;
54539;SDS011;40438;52.992;18.604;2022-09-30T10:44:53;10.27;;;6.65;;
54539;SDS011;40438;52.992;18.604;2022-09-30T10:47:22;14.70;;;7.13;;
54539;SDS011;40438;52.992;18.604;2022-09-30T10:49:50;10.90;;;6.82;;
54539;SDS011;40438;52.992;18.604;2022-09-30T10:52:21;12.25;;;7.85;;
54539;SDS011;40438;52.992;18.604;2022-09-30T10:54:50;11.52;;;6.95;;
54539;SDS011;40438;52.992;18.604;2022-09-30T10:57:18;11.07;;;6.45;;
54539;SDS011;40438;52.992;18.604;2022-09-30T10:59:45;13.25;;;7.57;;
54539;SDS011;40438;52.992;18.604;2022-09-30T11:02:17;12.90;;;6.97;;
54539;SDS011;40438;52.992;18.604;2022-09-30T11:04:53;13.20;;;7.25;;
54539;SDS011;40438;52.992;18.604;2022-09-30T11:07:28;13.80;;;6.80;;
54539;SDS011;40438;52.992;18.604;2022-09-30T11:09:59;13.73;;;8.65;;
54539;SDS011;40438;52.992;18.604;2022-09-30T11:15:02;27.70;;;7.93;;
54539;SDS011;40438;52.992;18.604;2022-09-30T11:17:39;14.45;;;8.52;;
54539;SDS011;40438;52.992;18.604;2022-09-30T11:20:14;15.50;;;7.38;;
54539;SDS011;40438;52.992;18.604;2022-09-30T11:22:47;15.05;;;7.10;;
54539;SDS011;40438;52.992;18.604;2022-09-30T11:25:21;15.05;;;8.38;;
54539;SDS011;40438;52.992;18.604;2022-09-30T11:27:57;12.48;;;7.60;;
54539;SDS011;40438;52.992;18.604;2022-09-30T11:30:47;15.73;;;9.48;;
54539;SDS011;40438;52.992;18.604;2022-09-30T11:33:24;15.85;;;8.57;;
54539;SDS011;40438;52.992;18.604;2022-09-30T11:36:09;18.13;;;11.02;;
54539;SDS011;40438;52.992;18.604;2022-09-30T11:38:47;16.38;;;11.48;;
54539;SDS011;40438;52.992;18.604;2022-09-30T11:41:23;14.50;;;8.68;;
54539;SDS011;40438;52.992;18.604;2022-09-30T11:43:57;12.55;;;6.28;;
54539;SDS011;40438;52.992;18.604;2022-09-30T11:49:41;10.85;;;6.30;;
54539;SDS011;40438;52.992;18.604;2022-09-30T11:52:16;11.65;;;6.57;;
54539;SDS011;40438;52.992;18.604;2022-09-30T11:54:54;12.10;;;7.73;;
54539;SDS011;40438;52.992;18.604;2022-09-30T12:00:00;15.00;;;9.52;;
54539;SDS011;40438;52.992;18.604;2022-09-30T12:02:37;16.40;;;7.60;;
54539;SDS011;40438;52.992;18.604;2022-09-30T12:05:08;16.08;;;9.27;;
54539;SDS011;40438;52.992;18.604;2022-09-30T12:07:39;13.15;;;9.07;;
54539;SDS011;40438;52.992;18.604;2022-09-30T12:10:14;16.48;;;9.52;;
54539;SDS011;40438;52.992;18.604;2022-09-30T12:12:43;13.88;;;9.05;;
54539;SDS011;40438;52.992;18.604;2022-09-30T12:15:14;16.70;;;10.38;;
54539;SDS011;40438;52.992;18.604;2022-09-30T12:17:43;8.77;;;6.20;;
54539;SDS011;40438;52.992;18.604;2022-09-30T12:20:17;9.15;;;5.60;;
54539;SDS011;40438;52.992;18.604;2022-09-30T12:22:48;8.63;;;5.78;;
54539;SDS011;40438;52.992;18.604;2022-09-30T12:25:16;13.10;;;6.38;;
54539;SDS011;40438;52.992;18.604;2022-09-30T12:27:47;11.40;;;7.00;;
54539;SDS011;40438;52.992;18.604;2022-09-30T12:30:17;11.80;;;7.53;;
54539;SDS011;40438;52.992;18.604;2022-09-30T12:35:54;15.20;;;9.52;;
54539;SDS011;40438;52.992;18.604;2022-09-30T12:38:46;12.90;;;7.43;;
54539;SDS011;40438;52.992;18.604;2022-09-30T12:41:28;12.30;;;7.53;;
54539;SDS011;40438;52.992;18.604;2022-09-30T12:47:18;11.55;;;6.35;;
54539;SDS011;40438;52.992;18.604;2022-09-30T12:49:54;15.25;;;7.32;;
54539;SDS011;40438;52.992;18.604;2022-09-30T12:52:24;11.00;;;6.38;;
54539;SDS011;40438;52.992;18.604;2022-09-30T12:54:55;11.15;;;6.57;;
54539;SDS011;40438;52.992;18.604;2022-09-30T12:57:25;10.75;;;6.68;;
54539;SDS011;40438;52.992;18.604;2022-09-30T12:59:54;13.20;;;6.57;;
54539;SDS011;40438;52.992;18.604;2022-09-30T13:02:30;12.70;;;6.47;;
54539;SDS011;40438;52.992;18.604;2022-09-30T13:08:15;11.60;;;6.30;;
54539;SDS011;40438;52.992;18.604;2022-09-30T13:10:54;13.02;;;6.10;;
54539;SDS011;40438;52.992;18.604;2022-09-30T13:13:22;9.23;;;5.47;;
54539;SDS011;40438;52.992;18.604;2022-09-30T13:15:49;11.57;;;5.80;;
54539;SDS011;40438;52.992;18.604;2022-09-30T13:21:23;12.95;;;7.28;;
54539;SDS011;40438;52.992;18.604;2022-09-30T13:23:51;12.48;;;6.93;;
54539;SDS011;40438;52.992;18.604;2022-09-30T13:26:34;33.28;;;9.93;;
54539;SDS011;40438;52.992;18.604;2022-09-30T13:32:07;13.40;;;7.70;;
54539;SDS011;40438;52.992;18.604;2022-09-30T13:34:46;11.35;;;6.50;;
54539;SDS011;40438;52.992;18.604;2022-09-30T13:37:32;13.35;;;6.28;;
54539;SDS011;40438;52.992;18.604;2022-09-30T13:40:04;11.30;;;6.78;;
54539;SDS011;40438;52.992;18.604;2022-09-30T13:42:52;9.55;;;6.30;;
54539;SDS011;40438;52.992;18.604;2022-09-30T13:45:20;13.55;;;6.18;;
54539;SDS011;40438;52.992;18.604;2022-09-30T13:47:56;8.70;;;4.90;;
54539;SDS011;40438;52.992;18.604;2022-09-30T13:50:29;7.75;;;4.97;;
54539;SDS011;40438;52.992;18.604;2022-09-30T13:52:58;8.07;;;4.78;;
54539;SDS011;40438;52.992;18.604;2022-09-30T13:55:30;7.68;;;4.63;;
54539;SDS011;40438;52.992;18.604;2022-09-30T13:58:03;7.55;;;5.05;;
54539;SDS011;40438;52.992;18.604;2022-09-30T14:00:44;8.48;;;5.18;;
54539;SDS011;40438;52.992;18.604;2022-09-30T14:06:12;8.10;;;4.55;;
54539;SDS011;40438;52.992;18.604;2022-09-30T14:11:46;9.00;;;5.38;;
54539;SDS011;40438;52.992;18.604;2022-09-30T14:14:39;9.55;;;5.43;;
54539;SDS011;40438;52.992;18.604;2022-09-30T14:17:35;7.47;;;5.00;;
54539;SDS011;40438;52.992;18.604;2022-09-30T14:20:19;7.90;;;4.50;;
54539;SDS011;40438;52.992;18.604;2022-09-30T14:22:56;7.50;;;4.47;;
54539;SDS011;40438;52.992;18.604;2022-09-30T14:25:21;6.43;;;3.97;;
54539;SDS011;40438;52.992;18.604;2022-09-30T14:27:58;6.45;;;4.30;;
54539;SDS011;40438;52.992;18.604;2022-09-30T14:30:27;5.45;;;3.65;;
54539;SDS011;40438;52.992;18.604;2022-09-30T14:33:00;7.10;;;3.97;;
54539;SDS011;40438;52.992;18.604;2022-09-30T14:35:28;6.93;;;4.10;;
54539;SDS011;40438;52.992;18.604;2022-09-30T14:37:56;5.20;;;3.67;;
54539;SDS011;40438;52.992;18.604;2022-09-30T14:40:26;7.25;;;4.32;;
54539;SDS011;40438;52.992;18.604;2022-09-30T14:42:53;6.43;;;4.10;;
54539;SDS011;40438;52.992;18.604;2022-09-30T14:45:25;6.47;;;4.00;;
54539;SDS011;40438;52.992;18.604;2022-09-30T14:47:54;7.45;;;4.55;;
54539;SDS011;40438;52.992;18.604;2022-09-30T14:50:27;5.95;;;4.30;;
54539;SDS011;40438;52.992;18.604;2022-09-30T14:52:59;6.40;;;4.32;;
54539;SDS011;40438;52.992;18.604;2022-09-30T14:55:26;14.18;;;5.53;;
54539;SDS011;40438;52.992;18.604;2022-09-30T14:57:53;7.50;;;4.65;;
54539;SDS011;40438;52.992;18.604;2022-09-30T15:00:39;8.05;;;4.45;;
54539;SDS011;40438;52.992;18.604;2022-09-30T15:03:08;7.43;;;4.43;;
54539;SDS011;40438;52.992;18.604;2022-09-30T15:05:35;7.68;;;4.38;;
54539;SDS011;40438;52.992;18.604;2022-09-30T15:08:01;6.57;;;4.60;;
54539;SDS011;40438;52.992;18.604;2022-09-30T15:10:27;7.85;;;4.82;;